sensor_id;sensor_type;location;lat;lon;timestamp;temperature;humidity
52125;DHT22;38119;52.710;6.398;2023-04-01T00:02:18;10.40;99.90
52125;DHT22;38119;52.710;6.398;2023-04-01T00:04:44;10.40;99.90
52125;DHT22;38119;52.710;6.398;2023-04-01T00:07:10;10.30;99.90
52125;DHT22;38119;52.710;6.398;2023-04-01T00:09:36;10.40;99.90
52125;DHT22;38119;52.710;6.398;2023-04-01T00:12:03;10.40;99.90
52125;DHT22;38119;52.710;6.398;2023-04-01T00:14:29;10.40;99.90
52125;DHT22;38119;52.710;6.398;2023-04-01T00:16:55;10.40;99.90
52125;DHT22;38119;52.710;6.398;2023-04-01T00:19:21;10.40;99.90
52125;DHT22;38119;52.710;6.398;2023-04-01T00:21:46;10.40;99.90
52125;DHT22;38119;52.710;6.398;2023-04-01T00:24:14;10.40;99.90
52125;DHT22;38119;52.710;6.398;2023-04-01T00:26:39;10.40;99.90
52125;DHT22;38119;52.710;6.398;2023-04-01T00:29:07;10.40;99.90
52125;DHT22;38119;52.710;6.398;2023-04-01T00:31:34;10.40;99.90
52125;DHT22;38119;52.710;6.398;2023-04-01T00:33:59;10.40;99.90
52125;DHT22;38119;52.710;6.398;2023-04-01T00:36:25;10.40;99.90
52125;DHT22;38119;52.710;6.398;2023-04-01T00:38:51;10.40;99.90
52125;DHT22;38119;52.710;6.398;2023-04-01T00:41:18;10.40;99.90
52125;DHT22;38119;52.710;6.398;2023-04-01T00:43:47;10.40;99.90
52125;DHT22;38119;52.710;6.398;2023-04-01T00:46:17;10.40;99.90
52125;DHT22;38119;52.710;6.398;2023-04-01T00:48:47;10.40;99.90
52125;DHT22;38119;52.710;6.398;2023-04-01T00:51:23;10.40;99.90
52125;DHT22;38119;52.710;6.398;2023-04-01T00:53:52;10.40;99.90
52125;DHT22;38119;52.710;6.398;2023-04-01T00:56:30;10.40;99.90
52125;DHT22;38119;52.710;6.398;2023-04-01T00:59:06;10.40;99.90
52125;DHT22;38119;52.710;6.398;2023-04-01T01:01:35;10.40;99.90
52125;DHT22;38119;52.710;6.398;2023-04-01T01:04:01;10.40;99.90
52125;DHT22;38119;52.710;6.398;2023-04-01T01:09:21;10.40;99.90
52125;DHT22;38119;52.710;6.398;2023-04-01T01:15:00;10.40;99.90
52125;DHT22;38119;52.710;6.398;2023-04-01T01:17:43;10.40;99.90
52125;DHT22;38119;52.710;6.398;2023-04-01T01:31:24;10.40;99.90
52125;DHT22;38119;52.710;6.398;2023-04-01T01:34:22;10.40;99.90
52125;DHT22;38119;52.710;6.398;2023-04-01T01:36:55;10.40;99.90
52125;DHT22;38119;52.710;6.398;2023-04-01T01:39:26;10.40;99.90
52125;DHT22;38119;52.710;6.398;2023-04-01T01:42:03;10.40;99.90
52125;DHT22;38119;52.710;6.398;2023-04-01T01:44:30;10.40;99.90
52125;DHT22;38119;52.710;6.398;2023-04-01T01:46:57;10.40;99.90
52125;DHT22;38119;52.710;6.398;2023-04-01T01:49:23;10.40;99.90
52125;DHT22;38119;52.710;6.398;2023-04-01T01:51:49;10.40;99.90
52125;DHT22;38119;52.710;6.398;2023-04-01T01:54:16;10.40;99.90
52125;DHT22;38119;52.710;6.398;2023-04-01T01:56:46;10.40;99.90
52125;DHT22;38119;52.710;6.398;2023-04-01T01:59:14;10.40;99.90
52125;DHT22;38119;52.710;6.398;2023-04-01T02:01:43;10.40;99.90
52125;DHT22;38119;52.710;6.398;2023-04-01T02:04:12;10.40;99.90
52125;DHT22;38119;52.710;6.398;2023-04-01T02:06:42;10.40;99.90
52125;DHT22;38119;52.710;6.398;2023-04-01T02:09:10;10.40;99.90
52125;DHT22;38119;52.710;6.398;2023-04-01T02:11:47;10.40;99.90
52125;DHT22;38119;52.710;6.398;2023-04-01T02:14:17;10.40;99.90
52125;DHT22;38119;52.710;6.398;2023-04-01T02:16:56;10.40;99.90
52125;DHT22;38119;52.710;6.398;2023-04-01T02:19:26;10.40;99.90
52125;DHT22;38119;52.710;6.398;2023-04-01T02:21:57;10.40;99.90
52125;DHT22;38119;52.710;6.398;2023-04-01T02:24:26;10.40;99.90
52125;DHT22;38119;52.710;6.398;2023-04-01T02:26:52;10.40;99.90
52125;DHT22;38119;52.710;6.398;2023-04-01T02:29:20;10.40;99.90
52125;DHT22;38119;52.710;6.398;2023-04-01T02:31:47;10.40;99.90
52125;DHT22;38119;52.710;6.398;2023-04-01T02:34:13;10.40;99.90
52125;DHT22;38119;52.710;6.398;2023-04-01T02:36:39;10.40;99.90
52125;DHT22;38119;52.710;6.398;2023-04-01T02:39:05;10.40;99.90
52125;DHT22;38119;52.710;6.398;2023-04-01T02:41:31;10.40;99.90
52125;DHT22;38119;52.710;6.398;2023-04-01T02:43:57;10.40;99.90
52125;DHT22;38119;52.710;6.398;2023-04-01T02:46:24;10.40;99.90
52125;DHT22;38119;52.710;6.398;2023-04-01T02:48:50;10.40;99.90
52125;DHT22;38119;52.710;6.398;2023-04-01T02:51:15;10.40;99.90
52125;DHT22;38119;52.710;6.398;2023-04-01T02:53:41;10.40;99.90
52125;DHT22;38119;52.710;6.398;2023-04-01T02:56:07;10.40;99.90
52125;DHT22;38119;52.710;6.398;2023-04-01T02:58:32;10.40;99.90
52125;DHT22;38119;52.710;6.398;2023-04-01T03:00:58;10.40;99.90
52125;DHT22;38119;52.710;6.398;2023-04-01T03:03:23;10.40;99.90
52125;DHT22;38119;52.710;6.398;2023-04-01T03:05:49;10.40;99.90
52125;DHT22;38119;52.710;6.398;2023-04-01T03:08:14;10.40;99.90
52125;DHT22;38119;52.710;6.398;2023-04-01T03:10:40;10.40;99.90
52125;DHT22;38119;52.710;6.398;2023-04-01T03:13:06;10.40;99.90
52125;DHT22;38119;52.710;6.398;2023-04-01T03:15:31;10.40;99.90
52125;DHT22;38119;52.710;6.398;2023-04-01T03:17:57;10.40;99.90
52125;DHT22;38119;52.710;6.398;2023-04-01T03:20:23;10.40;99.90
52125;DHT22;38119;52.710;6.398;2023-04-01T03:22:48;10.40;99.90
52125;DHT22;38119;52.710;6.398;2023-04-01T03:25:14;10.40;99.90
52125;DHT22;38119;52.710;6.398;2023-04-01T03:27:39;10.40;99.90
52125;DHT22;38119;52.710;6.398;2023-04-01T03:30:06;10.40;99.90
52125;DHT22;38119;52.710;6.398;2023-04-01T03:32:32;10.40;99.90
52125;DHT22;38119;52.710;6.398;2023-04-01T03:34:57;10.40;99.90
52125;DHT22;38119;52.710;6.398;2023-04-01T03:37:24;10.40;99.90
52125;DHT22;38119;52.710;6.398;2023-04-01T03:39:50;10.40;99.90
52125;DHT22;38119;52.710;6.398;2023-04-01T03:42:16;10.40;99.90
52125;DHT22;38119;52.710;6.398;2023-04-01T03:44:44;10.40;99.90
52125;DHT22;38119;52.710;6.398;2023-04-01T03:47:10;10.40;99.90
52125;DHT22;38119;52.710;6.398;2023-04-01T03:49:36;10.40;99.90
52125;DHT22;38119;52.710;6.398;2023-04-01T03:52:01;10.40;99.90
52125;DHT22;38119;52.710;6.398;2023-04-01T03:54:27;10.40;99.90
52125;DHT22;38119;52.710;6.398;2023-04-01T03:56:52;10.40;99.90
52125;DHT22;38119;52.710;6.398;2023-04-01T03:59:18;10.40;99.90
52125;DHT22;38119;52.710;6.398;2023-04-01T04:01:46;10.40;99.90
52125;DHT22;38119;52.710;6.398;2023-04-01T04:04:12;10.40;99.90
52125;DHT22;38119;52.710;6.398;2023-04-01T04:06:40;10.40;99.90
52125;DHT22;38119;52.710;6.398;2023-04-01T04:09:06;10.40;99.90
52125;DHT22;38119;52.710;6.398;2023-04-01T04:11:31;10.40;99.90
52125;DHT22;38119;52.710;6.398;2023-04-01T04:13:58;10.40;99.90
52125;DHT22;38119;52.710;6.398;2023-04-01T04:16:23;10.40;99.90
52125;DHT22;38119;52.710;6.398;2023-04-01T04:18:49;10.40;99.90
52125;DHT22;38119;52.710;6.398;2023-04-01T04:21:16;10.40;99.90
52125;DHT22;38119;52.710;6.398;2023-04-01T04:23:42;10.40;99.90
52125;DHT22;38119;52.710;6.398;2023-04-01T04:26:11;10.40;99.90
52125;DHT22;38119;52.710;6.398;2023-04-01T04:28:37;10.40;99.90
52125;DHT22;38119;52.710;6.398;2023-04-01T04:31:03;10.60;99.90
52125;DHT22;38119;52.710;6.398;2023-04-01T04:33:31;10.40;99.90
52125;DHT22;38119;52.710;6.398;2023-04-01T04:35:57;10.40;99.90
52125;DHT22;38119;52.710;6.398;2023-04-01T04:38:24;10.40;99.90
52125;DHT22;38119;52.710;6.398;2023-04-01T04:40:49;10.60;99.90
52125;DHT22;38119;52.710;6.398;2023-04-01T04:43:17;10.40;99.90
52125;DHT22;38119;52.710;6.398;2023-04-01T04:45:43;10.40;99.90
52125;DHT22;38119;52.710;6.398;2023-04-01T04:48:10;10.40;99.90
52125;DHT22;38119;52.710;6.398;2023-04-01T04:50:35;10.40;99.90
52125;DHT22;38119;52.710;6.398;2023-04-01T04:53:02;10.40;99.90
52125;DHT22;38119;52.710;6.398;2023-04-01T04:55:28;10.40;99.90
52125;DHT22;38119;52.710;6.398;2023-04-01T04:57:53;10.40;99.90
52125;DHT22;38119;52.710;6.398;2023-04-01T05:00:19;10.40;99.90
52125;DHT22;38119;52.710;6.398;2023-04-01T05:02:45;10.40;99.90
52125;DHT22;38119;52.710;6.398;2023-04-01T05:05:10;10.40;99.90
52125;DHT22;38119;52.710;6.398;2023-04-01T05:07:36;10.40;99.90
52125;DHT22;38119;52.710;6.398;2023-04-01T05:10:02;10.40;99.90
52125;DHT22;38119;52.710;6.398;2023-04-01T05:12:28;10.30;99.90
52125;DHT22;38119;52.710;6.398;2023-04-01T05:14:53;10.40;99.90
52125;DHT22;38119;52.710;6.398;2023-04-01T05:17:19;10.40;99.90
52125;DHT22;38119;52.710;6.398;2023-04-01T05:19:44;10.40;99.90
52125;DHT22;38119;52.710;6.398;2023-04-01T05:22:10;10.40;99.90
52125;DHT22;38119;52.710;6.398;2023-04-01T05:24:35;10.40;99.90
52125;DHT22;38119;52.710;6.398;2023-04-01T05:27:01;10.40;99.90
52125;DHT22;38119;52.710;6.398;2023-04-01T05:29:27;10.40;99.90
52125;DHT22;38119;52.710;6.398;2023-04-01T05:31:53;10.40;99.90
52125;DHT22;38119;52.710;6.398;2023-04-01T05:34:18;10.40;99.90
52125;DHT22;38119;52.710;6.398;2023-04-01T05:36:44;11.20;99.90
52125;DHT22;38119;52.710;6.398;2023-04-01T05:39:10;10.40;99.90
52125;DHT22;38119;52.710;6.398;2023-04-01T05:41:36;10.40;99.90
52125;DHT22;38119;52.710;6.398;2023-04-01T05:44:02;10.40;99.90
52125;DHT22;38119;52.710;6.398;2023-04-01T05:46:27;10.40;99.90
52125;DHT22;38119;52.710;6.398;2023-04-01T05:48:53;10.40;99.90
52125;DHT22;38119;52.710;6.398;2023-04-01T05:51:19;10.40;99.90
52125;DHT22;38119;52.710;6.398;2023-04-01T05:53:44;10.40;99.90
52125;DHT22;38119;52.710;6.398;2023-04-01T05:56:10;10.40;99.90
52125;DHT22;38119;52.710;6.398;2023-04-01T05:58:37;10.40;99.90
52125;DHT22;38119;52.710;6.398;2023-04-01T06:01:07;10.40;99.90
52125;DHT22;38119;52.710;6.398;2023-04-01T06:03:33;10.40;99.90
52125;DHT22;38119;52.710;6.398;2023-04-01T06:05:59;10.40;99.90
52125;DHT22;38119;52.710;6.398;2023-04-01T06:08:27;10.40;99.90
52125;DHT22;38119;52.710;6.398;2023-04-01T06:17:07;10.40;99.90
52125;DHT22;38119;52.710;6.398;2023-04-01T06:20:11;10.40;99.90
52125;DHT22;38119;52.710;6.398;2023-04-01T06:34:51;10.50;99.90
52125;DHT22;38119;52.710;6.398;2023-04-01T06:42:59;10.60;99.90
52125;DHT22;38119;52.710;6.398;2023-04-01T06:45:33;10.60;99.90
52125;DHT22;38119;52.710;6.398;2023-04-01T06:48:23;10.60;99.90
52125;DHT22;38119;52.710;6.398;2023-04-01T06:56:14;10.60;99.90
52125;DHT22;38119;52.710;6.398;2023-04-01T06:58:48;10.60;99.90
52125;DHT22;38119;52.710;6.398;2023-04-01T07:01:20;10.70;99.90
52125;DHT22;38119;52.710;6.398;2023-04-01T07:04:02;10.70;99.90
52125;DHT22;38119;52.710;6.398;2023-04-01T07:06:58;10.70;99.90
52125;DHT22;38119;52.710;6.398;2023-04-01T07:09:27;10.70;99.90
52125;DHT22;38119;52.710;6.398;2023-04-01T07:11:56;10.70;99.90
52125;DHT22;38119;52.710;6.398;2023-04-01T07:14:35;10.70;99.90
52125;DHT22;38119;52.710;6.398;2023-04-01T07:17:14;10.70;99.90
52125;DHT22;38119;52.710;6.398;2023-04-01T07:19:52;10.80;99.90
52125;DHT22;38119;52.710;6.398;2023-04-01T07:22:43;10.90;99.90
52125;DHT22;38119;52.710;6.398;2023-04-01T07:25:34;10.90;99.90
52125;DHT22;38119;52.710;6.398;2023-04-01T07:28:06;10.90;99.90
52125;DHT22;38119;52.710;6.398;2023-04-01T07:33:37;11.00;99.90
52125;DHT22;38119;52.710;6.398;2023-04-01T07:36:17;11.10;99.90
52125;DHT22;38119;52.710;6.398;2023-04-01T07:39:09;11.20;99.90
52125;DHT22;38119;52.710;6.398;2023-04-01T07:42:01;11.20;99.90
52125;DHT22;38119;52.710;6.398;2023-04-01T07:44:54;11.30;99.90
52125;DHT22;38119;52.710;6.398;2023-04-01T07:50:26;11.30;99.90
52125;DHT22;38119;52.710;6.398;2023-04-01T07:53:25;11.30;99.90
52125;DHT22;38119;52.710;6.398;2023-04-01T07:58:56;11.40;99.90
52125;DHT22;38119;52.710;6.398;2023-04-01T08:06:59;11.40;99.90
52125;DHT22;38119;52.710;6.398;2023-04-01T08:13:16;11.40;99.90
52125;DHT22;38119;52.710;6.398;2023-04-01T08:15:26;11.40;99.90
52125;DHT22;38119;52.710;6.398;2023-04-01T08:18:23;11.40;99.90
52125;DHT22;38119;52.710;6.398;2023-04-01T08:21:01;11.50;99.90
52125;DHT22;38119;52.710;6.398;2023-04-01T08:23:32;11.50;99.90
52125;DHT22;38119;52.710;6.398;2023-04-01T08:28:39;11.50;99.90
52125;DHT22;38119;52.710;6.398;2023-04-01T08:31:16;11.50;99.90
52125;DHT22;38119;52.710;6.398;2023-04-01T08:33:46;11.50;99.90
52125;DHT22;38119;52.710;6.398;2023-04-01T08:36:24;11.50;99.90
52125;DHT22;38119;52.710;6.398;2023-04-01T08:52:37;11.80;99.90
52125;DHT22;38119;52.710;6.398;2023-04-01T09:01:17;12.00;99.90
52125;DHT22;38119;52.710;6.398;2023-04-01T09:06:33;12.00;99.90
52125;DHT22;38119;52.710;6.398;2023-04-01T09:09:26;12.10;99.90
52125;DHT22;38119;52.710;6.398;2023-04-01T09:37:20;11.90;99.90
52125;DHT22;38119;52.710;6.398;2023-04-01T09:39:54;11.90;99.90
52125;DHT22;38119;52.710;6.398;2023-04-01T09:51:06;12.00;99.90
52125;DHT22;38119;52.710;6.398;2023-04-01T09:53:58;12.10;99.90
52125;DHT22;38119;52.710;6.398;2023-04-01T10:07:33;12.20;99.90
52125;DHT22;38119;52.710;6.398;2023-04-01T10:23:45;12.20;99.90
52125;DHT22;38119;52.710;6.398;2023-04-01T10:40:23;12.20;99.90
52125;DHT22;38119;52.710;6.398;2023-04-01T10:49:02;12.20;99.90
52125;DHT22;38119;52.710;6.398;2023-04-01T10:52:01;12.30;99.90
52125;DHT22;38119;52.710;6.398;2023-04-01T11:14:23;11.90;99.90
52125;DHT22;38119;52.710;6.398;2023-04-01T11:22:27;11.80;99.90
52125;DHT22;38119;52.710;6.398;2023-04-01T11:27:53;11.90;99.90
52125;DHT22;38119;52.710;6.398;2023-04-01T11:33:36;12.00;99.90
52125;DHT22;38119;52.710;6.398;2023-04-01T11:36:33;12.00;99.90
52125;DHT22;38119;52.710;6.398;2023-04-01T11:44:34;12.20;99.90
52125;DHT22;38119;52.710;6.398;2023-04-01T11:47:10;12.20;99.90
52125;DHT22;38119;52.710;6.398;2023-04-01T11:50:11;12.20;99.90
52125;DHT22;38119;52.710;6.398;2023-04-01T11:53:01;12.10;99.90
52125;DHT22;38119;52.710;6.398;2023-04-01T11:56:00;12.00;99.90
52125;DHT22;38119;52.710;6.398;2023-04-01T11:58:53;11.90;99.90
52125;DHT22;38119;52.710;6.398;2023-04-01T12:04:34;11.70;99.90
52125;DHT22;38119;52.710;6.398;2023-04-01T12:12:37;11.60;99.90
52125;DHT22;38119;52.710;6.398;2023-04-01T12:15:18;11.50;99.90
52125;DHT22;38119;52.710;6.398;2023-04-01T12:20:49;11.60;99.90
52125;DHT22;38119;52.710;6.398;2023-04-01T12:26:06;11.50;99.90
52125;DHT22;38119;52.710;6.398;2023-04-01T12:39:48;11.50;99.90
52125;DHT22;38119;52.710;6.398;2023-04-01T12:42:24;11.40;99.90
52125;DHT22;38119;52.710;6.398;2023-04-01T12:51:07;11.30;99.90
52125;DHT22;38119;52.710;6.398;2023-04-01T12:56:57;11.30;99.90
52125;DHT22;38119;52.710;6.398;2023-04-01T12:59:36;11.20;99.90
52125;DHT22;38119;52.710;6.398;2023-04-01T13:02:37;11.20;99.90
52125;DHT22;38119;52.710;6.398;2023-04-01T13:05:26;11.20;99.90
52125;DHT22;38119;52.710;6.398;2023-04-01T13:13:28;11.20;99.90
52125;DHT22;38119;52.710;6.398;2023-04-01T13:16:27;11.20;99.90
52125;DHT22;38119;52.710;6.398;2023-04-01T13:19:31;11.20;99.90
52125;DHT22;38119;52.710;6.398;2023-04-01T13:22:20;11.20;99.90
52125;DHT22;38119;52.710;6.398;2023-04-01T13:24:55;11.10;99.90
52125;DHT22;38119;52.710;6.398;2023-04-01T13:30:30;11.10;99.90
52125;DHT22;38119;52.710;6.398;2023-04-01T13:35:56;11.10;99.90
52125;DHT22;38119;52.710;6.398;2023-04-01T13:41:21;11.10;99.90
52125;DHT22;38119;52.710;6.398;2023-04-01T13:44:02;11.10;99.90
52125;DHT22;38119;52.710;6.398;2023-04-01T13:54:42;11.10;99.90
52125;DHT22;38119;52.710;6.398;2023-04-01T14:11:25;11.10;99.90
52125;DHT22;38119;52.710;6.398;2023-04-01T14:17:08;11.00;99.90
52125;DHT22;38119;52.710;6.398;2023-04-01T14:28:28;10.90;99.90
52125;DHT22;38119;52.710;6.398;2023-04-01T14:31:22;10.90;99.90
52125;DHT22;38119;52.710;6.398;2023-04-01T14:34:05;10.80;99.90
52125;DHT22;38119;52.710;6.398;2023-04-01T14:42:14;10.80;99.90
52125;DHT22;38119;52.710;6.398;2023-04-01T14:50:28;10.70;99.90
52125;DHT22;38119;52.710;6.398;2023-04-01T14:58:10;10.70;99.90
52125;DHT22;38119;52.710;6.398;2023-04-01T15:00:57;10.70;99.90
52125;DHT22;38119;52.710;6.398;2023-04-01T15:03:53;10.60;99.90
52125;DHT22;38119;52.710;6.398;2023-04-01T15:06:41;10.60;99.90
52125;DHT22;38119;52.710;6.398;2023-04-01T15:12:34;10.60;99.90
52125;DHT22;38119;52.710;6.398;2023-04-01T15:26:42;10.50;99.90
52125;DHT22;38119;52.710;6.398;2023-04-01T15:29:39;10.50;99.90
52125;DHT22;38119;52.710;6.398;2023-04-01T15:32:32;10.50;99.90
52125;DHT22;38119;52.710;6.398;2023-04-01T15:41:14;10.40;99.90
52125;DHT22;38119;52.710;6.398;2023-04-01T15:43:46;10.40;99.90
52125;DHT22;38119;52.710;6.398;2023-04-01T15:54:47;10.30;99.90
52125;DHT22;38119;52.710;6.398;2023-04-01T15:57:49;10.30;99.90
52125;DHT22;38119;52.710;6.398;2023-04-01T16:00:20;10.30;99.90
52125;DHT22;38119;52.710;6.398;2023-04-01T16:03:13;10.20;99.90
52125;DHT22;38119;52.710;6.398;2023-04-01T16:06:08;10.20;99.90
52125;DHT22;38119;52.710;6.398;2023-04-01T16:09:05;10.20;99.90
52125;DHT22;38119;52.710;6.398;2023-04-01T16:14:26;10.20;99.90
52125;DHT22;38119;52.710;6.398;2023-04-01T16:25:35;10.10;99.90
52125;DHT22;38119;52.710;6.398;2023-04-01T16:33:49;10.10;99.90
52125;DHT22;38119;52.710;6.398;2023-04-01T16:36:35;10.00;99.90
52125;DHT22;38119;52.710;6.398;2023-04-01T16:39:41;10.00;99.90
52125;DHT22;38119;52.710;6.398;2023-04-01T16:47:30;9.80;99.90
52125;DHT22;38119;52.710;6.398;2023-04-01T16:50:07;9.80;99.90
52125;DHT22;38119;52.710;6.398;2023-04-01T16:53:02;9.90;99.90
52125;DHT22;38119;52.710;6.398;2023-04-01T16:58:41;9.80;99.90
52125;DHT22;38119;52.710;6.398;2023-04-01T17:01:16;9.70;99.90
52125;DHT22;38119;52.710;6.398;2023-04-01T17:03:45;9.70;99.90
52125;DHT22;38119;52.710;6.398;2023-04-01T17:06:31;9.70;99.90
52125;DHT22;38119;52.710;6.398;2023-04-01T17:09:41;9.70;99.90
52125;DHT22;38119;52.710;6.398;2023-04-01T17:12:29;9.60;99.90
52125;DHT22;38119;52.710;6.398;2023-04-01T17:15:25;9.60;99.90
52125;DHT22;38119;52.710;6.398;2023-04-01T17:18:14;9.60;99.90
52125;DHT22;38119;52.710;6.398;2023-04-01T17:20:58;9.60;99.90
52125;DHT22;38119;52.710;6.398;2023-04-01T17:23:38;9.60;99.90
52125;DHT22;38119;52.710;6.398;2023-04-01T17:26:46;9.60;99.90
52125;DHT22;38119;52.710;6.398;2023-04-01T17:29:24;9.50;99.90
52125;DHT22;38119;52.710;6.398;2023-04-01T17:32:20;9.50;99.90
52125;DHT22;38119;52.710;6.398;2023-04-01T17:35:04;9.50;99.90
52125;DHT22;38119;52.710;6.398;2023-04-01T17:40:40;9.70;99.90
52125;DHT22;38119;52.710;6.398;2023-04-01T17:45:56;9.40;99.90
52125;DHT22;38119;52.710;6.398;2023-04-01T17:48:50;9.30;99.90
52125;DHT22;38119;52.710;6.398;2023-04-01T17:51:33;9.30;99.90
52125;DHT22;38119;52.710;6.398;2023-04-01T17:56:53;9.30;99.90
52125;DHT22;38119;52.710;6.398;2023-04-01T17:59:36;9.30;99.90
52125;DHT22;38119;52.710;6.398;2023-04-01T18:07:57;9.20;99.90
52125;DHT22;38119;52.710;6.398;2023-04-01T18:10:48;9.20;99.90
52125;DHT22;38119;52.710;6.398;2023-04-01T18:13:47;9.10;99.90
52125;DHT22;38119;52.710;6.398;2023-04-01T18:16:33;9.10;99.90
52125;DHT22;38119;52.710;6.398;2023-04-01T18:22:21;9.10;99.90
52125;DHT22;38119;52.710;6.398;2023-04-01T18:24:58;9.00;99.90
52125;DHT22;38119;52.710;6.398;2023-04-01T18:27:30;9.00;99.90
52125;DHT22;38119;52.710;6.398;2023-04-01T18:30:16;9.00;99.90
52125;DHT22;38119;52.710;6.398;2023-04-01T18:32:51;9.00;99.90
52125;DHT22;38119;52.710;6.398;2023-04-01T18:38:13;8.90;99.90
52125;DHT22;38119;52.710;6.398;2023-04-01T18:40:51;8.90;99.90
52125;DHT22;38119;52.710;6.398;2023-04-01T18:46:17;8.90;99.90
52125;DHT22;38119;52.710;6.398;2023-04-01T18:49:16;8.80;99.90
52125;DHT22;38119;52.710;6.398;2023-04-01T18:51:49;8.70;99.90
52125;DHT22;38119;52.710;6.398;2023-04-01T18:54:39;8.80;99.90
52125;DHT22;38119;52.710;6.398;2023-04-01T18:57:18;8.70;99.90
52125;DHT22;38119;52.710;6.398;2023-04-01T18:59:51;8.70;99.90
52125;DHT22;38119;52.710;6.398;2023-04-01T19:13:16;8.60;99.90
52125;DHT22;38119;52.710;6.398;2023-04-01T19:21:33;8.60;99.90
52125;DHT22;38119;52.710;6.398;2023-04-01T19:24:21;8.50;99.90
52125;DHT22;38119;52.710;6.398;2023-04-01T19:30:12;8.50;99.90
52125;DHT22;38119;52.710;6.398;2023-04-01T19:35:46;8.50;99.90
52125;DHT22;38119;52.710;6.398;2023-04-01T19:41:01;8.40;99.90
52125;DHT22;38119;52.710;6.398;2023-04-01T19:46:32;8.40;99.90
52125;DHT22;38119;52.710;6.398;2023-04-01T19:49:14;8.40;99.90
52125;DHT22;38119;52.710;6.398;2023-04-01T19:54:35;8.30;99.90
52125;DHT22;38119;52.710;6.398;2023-04-01T20:05:00;8.20;99.90
52125;DHT22;38119;52.710;6.398;2023-04-01T20:07:59;8.20;99.90
52125;DHT22;38119;52.710;6.398;2023-04-01T20:10:42;8.20;99.90
52125;DHT22;38119;52.710;6.398;2023-04-01T20:15:47;8.20;99.90
52125;DHT22;38119;52.710;6.398;2023-04-01T20:18:36;8.20;99.90
52125;DHT22;38119;52.710;6.398;2023-04-01T20:21:16;8.20;99.90
52125;DHT22;38119;52.710;6.398;2023-04-01T20:24:28;8.20;99.90
52125;DHT22;38119;52.710;6.398;2023-04-01T20:26:33;8.10;99.90
52125;DHT22;38119;52.710;6.398;2023-04-01T20:32:06;8.10;99.90
52125;DHT22;38119;52.710;6.398;2023-04-01T20:37:29;8.00;99.90
52125;DHT22;38119;52.710;6.398;2023-04-01T20:45:48;8.00;99.90
52125;DHT22;38119;52.710;6.398;2023-04-01T20:48:26;8.00;99.90
52125;DHT22;38119;52.710;6.398;2023-04-01T20:51:15;7.90;99.90
52125;DHT22;38119;52.710;6.398;2023-04-01T20:56:34;7.90;99.90
52125;DHT22;38119;52.710;6.398;2023-04-01T21:05:04;7.80;99.90
52125;DHT22;38119;52.710;6.398;2023-04-01T21:19:49;7.80;99.90
52125;DHT22;38119;52.710;6.398;2023-04-01T21:24:50;7.70;99.90
52125;DHT22;38119;52.710;6.398;2023-04-01T21:27:25;7.70;99.90
52125;DHT22;38119;52.710;6.398;2023-04-01T21:35:07;7.60;99.90
52125;DHT22;38119;52.710;6.398;2023-04-01T22:05:51;7.40;99.90
52125;DHT22;38119;52.710;6.398;2023-04-01T22:13:35;7.40;99.90
52125;DHT22;38119;52.710;6.398;2023-04-01T22:16:12;7.40;99.90
52125;DHT22;38119;52.710;6.398;2023-04-01T22:21:34;7.40;99.90
52125;DHT22;38119;52.710;6.398;2023-04-01T22:24:18;7.40;99.90
52125;DHT22;38119;52.710;6.398;2023-04-01T22:32:42;7.30;99.90
52125;DHT22;38119;52.710;6.398;2023-04-01T22:38:12;7.30;99.90
52125;DHT22;38119;52.710;6.398;2023-04-01T22:40:47;7.30;99.90
52125;DHT22;38119;52.710;6.398;2023-04-01T22:48:40;7.30;99.90
52125;DHT22;38119;52.710;6.398;2023-04-01T22:51:23;7.20;99.90
52125;DHT22;38119;52.710;6.398;2023-04-01T22:54:07;7.20;99.90
52125;DHT22;38119;52.710;6.398;2023-04-01T22:56:41;7.20;99.90
52125;DHT22;38119;52.710;6.398;2023-04-01T22:59:33;7.20;99.90
52125;DHT22;38119;52.710;6.398;2023-04-01T23:02:06;7.20;99.90
52125;DHT22;38119;52.710;6.398;2023-04-01T23:04:39;7.20;99.90
52125;DHT22;38119;52.710;6.398;2023-04-01T23:07:29;7.20;99.90
52125;DHT22;38119;52.710;6.398;2023-04-01T23:09:59;7.20;99.90
52125;DHT22;38119;52.710;6.398;2023-04-01T23:12:27;7.20;99.90
52125;DHT22;38119;52.710;6.398;2023-04-01T23:15:00;7.10;99.90
52125;DHT22;38119;52.710;6.398;2023-04-01T23:17:34;7.10;99.90
52125;DHT22;38119;52.710;6.398;2023-04-01T23:20:20;7.10;99.90
52125;DHT22;38119;52.710;6.398;2023-04-01T23:31:36;7.00;99.90
52125;DHT22;38119;52.710;6.398;2023-04-01T23:36:43;7.00;99.90
52125;DHT22;38119;52.710;6.398;2023-04-01T23:39:29;6.90;99.90
52125;DHT22;38119;52.710;6.398;2023-04-01T23:42:12;6.90;99.90
52125;DHT22;38119;52.710;6.398;2023-04-01T23:44:38;6.90;99.90
52125;DHT22;38119;52.710;6.398;2023-04-01T23:47:05;6.90;99.90
52125;DHT22;38119;52.710;6.398;2023-04-01T23:49:38;6.90;99.90
52125;DHT22;38119;52.710;6.398;2023-04-01T23:52:12;6.90;99.90
52125;DHT22;38119;52.710;6.398;2023-04-01T23:57:24;6.90;99.90
